createdAt,value
2023-04-09T00:00:43.773Z,63.70
2023-04-09T00:03:10.853Z,52.90
2023-04-09T00:05:41.064Z,58.67
2023-04-09T00:08:08.320Z,51.63
2023-04-09T00:10:35.230Z,56.60
2023-04-09T00:13:02.007Z,53.90
2023-04-09T00:15:31.571Z,49.10
2023-04-09T00:17:59.238Z,54.13
2023-04-09T00:20:26.158Z,53.90
2023-04-09T00:22:52.911Z,54.47
2023-04-09T00:25:20.362Z,51.73
2023-04-09T00:27:47.604Z,54.53
2023-04-09T00:30:14.428Z,52.47
2023-04-09T00:32:41.279Z,56.00
2023-04-09T00:35:08.942Z,53.37
2023-04-09T00:37:35.791Z,54.30
2023-04-09T00:40:02.699Z,56.23
2023-04-09T00:42:37.386Z,66.63
2023-04-09T00:45:06.155Z,60.50
2023-04-09T00:47:34.304Z,53.10
2023-04-09T00:50:01.791Z,57.53
2023-04-09T00:52:30.648Z,49.10
2023-04-09T00:55:00.593Z,56.63
2023-04-09T00:57:28.853Z,56.27
2023-04-09T00:59:56.032Z,53.57
2023-04-09T01:02:22.959Z,52.67
2023-04-09T01:04:50.881Z,67.07
2023-04-09T01:07:42.659Z,49.50
2023-04-09T01:10:28.506Z,48.00
2023-04-09T01:13:13.147Z,54.73
2023-04-09T01:15:59.333Z,56.53
2023-04-09T01:18:51.568Z,53.73
2023-04-09T01:21:23.113Z,58.17
2023-04-09T01:23:52.861Z,62.43
2023-04-09T01:27:01.566Z,62.20
2023-04-09T01:29:31.953Z,57.97
2023-04-09T01:32:00.417Z,61.17
2023-04-09T01:34:29.104Z,54.33
2023-04-09T01:36:58.669Z,51.80
2023-04-09T01:39:27.090Z,51.33
2023-04-09T01:41:55.098Z,62.53
2023-04-09T01:44:23.507Z,57.77
2023-04-09T01:46:51.528Z,56.13
2023-04-09T01:49:19.374Z,57.90
2023-04-09T01:51:47.323Z,57.80
2023-04-09T01:54:14.177Z,61.27
2023-04-09T01:56:41.801Z,65.20
2023-04-09T01:59:08.585Z,63.90
2023-04-09T02:01:47.245Z,62.00
2023-04-09T02:04:24.705Z,72.43
2023-04-09T02:07:03.209Z,59.30
2023-04-09T02:09:31.837Z,56.63
2023-04-09T02:12:02.565Z,67.47
2023-04-09T02:14:31.513Z,52.90
2023-04-09T02:16:59.192Z,61.90
2023-04-09T02:19:26.293Z,76.73
2023-04-09T02:21:52.991Z,60.30
2023-04-09T02:24:20.190Z,66.40
2023-04-09T02:26:47.297Z,58.23
2023-04-09T02:29:14.394Z,63.40
2023-04-09T02:31:41.085Z,59.87
2023-04-09T02:34:07.743Z,66.97
2023-04-09T02:36:34.428Z,57.93
2023-04-09T02:39:01.104Z,80.23
2023-04-09T02:41:28.225Z,64.27
2023-04-09T02:43:55.473Z,65.70
2023-04-09T02:46:22.201Z,75.77
2023-04-09T02:48:49.603Z,67.90
2023-04-09T02:51:16.958Z,58.57
2023-04-09T02:53:45.579Z,61.67
2023-04-09T02:56:12.707Z,68.33
2023-04-09T02:58:39.440Z,57.07
2023-04-09T03:01:06.520Z,58.67
2023-04-09T03:03:33.768Z,60.67
2023-04-09T03:06:00.681Z,64.13
2023-04-09T03:08:27.444Z,57.83
2023-04-09T03:10:54.122Z,69.50
2023-04-09T03:13:20.841Z,57.20
2023-04-09T03:15:52.853Z,57.80
2023-04-09T03:18:20.250Z,62.30
2023-04-09T03:20:47.074Z,56.57
2023-04-09T03:23:14.170Z,61.13
2023-04-09T03:25:41.026Z,55.87
2023-04-09T03:28:07.717Z,62.47
2023-04-09T03:30:34.471Z,60.37
2023-04-09T03:33:01.223Z,70.00
2023-04-09T03:35:27.987Z,64.60
2023-04-09T03:37:54.734Z,70.20
2023-04-09T03:40:21.446Z,67.27
2023-04-09T03:42:48.165Z,62.17
2023-04-09T03:45:15.464Z,62.07
2023-04-09T03:47:42.554Z,58.93
2023-04-09T03:50:09.743Z,63.83
2023-04-09T03:52:36.443Z,64.67
2023-04-09T03:55:04.646Z,60.97
2023-04-09T03:57:31.361Z,74.40
2023-04-09T03:59:58.500Z,74.53
2023-04-09T04:02:27.182Z,64.10
2023-04-09T04:04:54.149Z,68.00
2023-04-09T04:07:21.034Z,63.37
2023-04-09T04:09:47.729Z,60.97
2023-04-09T04:12:14.468Z,73.57
2023-04-09T04:14:41.599Z,56.80
2023-04-09T04:17:08.456Z,60.13
2023-04-09T04:19:35.234Z,57.07
2023-04-09T04:22:01.959Z,66.13
2023-04-09T04:24:28.717Z,63.07
2023-04-09T04:26:56.024Z,61.63
2023-04-09T04:29:22.761Z,62.70
2023-04-09T04:31:49.469Z,63.23
2023-04-09T04:34:16.384Z,52.30
2023-04-09T04:36:43.044Z,59.40
2023-04-09T04:39:09.724Z,54.40
2023-04-09T04:41:36.578Z,63.13
2023-04-09T04:44:03.307Z,71.03
2023-04-09T04:46:30.506Z,59.90
2023-04-09T04:48:57.192Z,62.13
2023-04-09T04:51:24.293Z,64.67
2023-04-09T04:53:50.992Z,58.20
2023-04-09T04:56:17.732Z,75.07
2023-04-09T04:58:44.580Z,68.97
2023-04-09T05:01:11.350Z,63.20
2023-04-09T05:03:38.162Z,89.03
2023-04-09T05:06:05.501Z,82.17
2023-04-09T05:08:32.189Z,87.83
2023-04-09T05:10:58.877Z,105.50
2023-04-09T05:13:25.942Z,208.53
2023-04-09T05:15:52.719Z,173.47
2023-04-09T05:18:19.496Z,127.00
2023-04-09T05:20:46.174Z,178.50
2023-04-09T05:23:12.947Z,272.97
2023-04-09T05:25:39.758Z,306.43
2023-04-09T05:28:06.671Z,385.53
2023-04-09T05:30:33.848Z,350.40
2023-04-09T05:33:01.032Z,169.77
2023-04-09T05:35:27.763Z,115.33
2023-04-09T05:37:54.564Z,419.53
2023-04-09T05:40:21.446Z,339.70
2023-04-09T05:42:48.177Z,325.50
2023-04-09T05:45:14.984Z,428.43
2023-04-09T05:47:41.772Z,714.63
2023-04-09T05:50:08.895Z,543.93
2023-04-09T05:52:35.852Z,534.33
2023-04-09T05:55:02.533Z,429.07
2023-04-09T05:57:30.589Z,457.37
2023-04-09T05:59:57.473Z,473.03
2023-04-09T06:02:25.306Z,385.90
2023-04-09T06:04:52.291Z,299.63
2023-04-09T06:07:19.100Z,474.27
2023-04-09T06:09:46.881Z,311.97
2023-04-09T06:12:14.080Z,583.10
2023-04-09T06:14:40.841Z,238.13
2023-04-09T06:17:07.727Z,418.57
2023-04-09T06:19:34.557Z,167.00
2023-04-09T06:22:01.253Z,304.97
2023-04-09T06:24:27.974Z,234.30
2023-04-09T06:26:54.646Z,294.33
2023-04-09T06:29:24.182Z,389.50
2023-04-09T06:31:51.196Z,237.67
2023-04-09T06:34:17.847Z,307.50
2023-04-09T06:36:44.967Z,196.27
2023-04-09T06:39:11.877Z,246.13
2023-04-09T06:41:38.603Z,391.77
2023-04-09T06:44:05.382Z,144.53
2023-04-09T06:46:32.313Z,111.10
2023-04-09T06:48:59.422Z,192.37
2023-04-09T06:51:27.060Z,136.47
2023-04-09T06:53:54.180Z,123.10
2023-04-09T06:56:21.299Z,274.53
2023-04-09T06:58:48.230Z,135.13
2023-04-09T07:01:17.107Z,112.70
2023-04-09T07:03:43.937Z,103.47
2023-04-09T07:06:10.738Z,165.40
2023-04-09T07:08:37.407Z,268.00
2023-04-09T07:11:04.105Z,176.70
2023-04-09T07:13:31.306Z,148.23
2023-04-09T07:15:58.046Z,137.00
2023-04-09T07:18:24.722Z,141.80
2023-04-09T07:20:52.787Z,173.50
2023-04-09T07:23:19.730Z,100.77
2023-04-09T07:25:47.301Z,128.50
2023-04-09T07:28:14.005Z,152.40
2023-04-09T07:30:41.245Z,160.47
2023-04-09T07:33:08.057Z,219.53
2023-04-09T07:35:35.302Z,145.03
2023-04-09T07:38:02.059Z,166.40
2023-04-09T07:40:28.799Z,110.63
2023-04-09T07:42:55.956Z,149.70
2023-04-09T07:45:22.651Z,109.37
2023-04-09T07:47:49.813Z,89.77
2023-04-09T07:50:16.623Z,89.50
2023-04-09T07:52:43.345Z,95.27
2023-04-09T07:55:10.140Z,84.43
2023-04-09T07:57:37.541Z,80.77
2023-04-09T08:00:05.792Z,82.23
2023-04-09T08:02:32.636Z,79.73
2023-04-09T08:04:59.574Z,75.53
2023-04-09T08:07:26.369Z,75.23
2023-04-09T08:09:53.090Z,78.37
2023-04-09T08:12:19.774Z,71.83
2023-04-09T08:14:46.927Z,74.17
2023-04-09T08:17:13.635Z,72.80
2023-04-09T08:19:41.948Z,77.70
2023-04-09T08:22:08.961Z,70.90
2023-04-09T08:24:35.982Z,66.93
2023-04-09T08:27:02.711Z,68.87
2023-04-09T08:29:29.598Z,67.40
2023-04-09T08:31:56.455Z,62.80
2023-04-09T08:34:23.264Z,69.50
2023-04-09T08:36:50.226Z,61.43
2023-04-09T08:39:20.762Z,64.67
2023-04-09T08:41:48.390Z,62.63
2023-04-09T08:44:15.536Z,57.17
2023-04-09T08:46:42.798Z,55.07
2023-04-09T08:49:10.975Z,59.23
2023-04-09T08:51:37.765Z,53.90
2023-04-09T08:54:27.272Z,51.90
2023-04-09T08:56:51.139Z,50.00
2023-04-09T08:59:18.639Z,55.33
2023-04-09T09:01:47.977Z,52.60
2023-04-09T09:04:14.989Z,52.83
2023-04-09T09:06:42.096Z,53.80
2023-04-09T09:09:16.418Z,50.30
2023-04-09T09:11:48.568Z,49.27
2023-04-09T09:14:17.846Z,50.57
2023-04-09T09:16:58.050Z,50.97
2023-04-09T09:19:24.923Z,52.00
2023-04-09T09:22:03.378Z,48.67
2023-04-09T09:24:32.277Z,48.30
2023-04-09T09:26:59.155Z,49.53
2023-04-09T09:29:26.451Z,57.40
2023-04-09T09:31:54.704Z,50.00
2023-04-09T09:34:23.157Z,48.27
2023-04-09T09:36:50.510Z,50.37
2023-04-09T09:39:17.861Z,51.40
2023-04-09T09:41:46.468Z,48.47
2023-04-09T09:44:31.295Z,54.00
2023-04-09T09:46:59.362Z,46.23
2023-04-09T09:49:26.275Z,48.00
2023-04-09T09:51:56.779Z,45.50
2023-04-09T09:54:27.133Z,49.43
2023-04-09T09:56:58.040Z,52.67
2023-04-09T09:59:30.402Z,46.80
2023-04-09T10:02:01.410Z,45.50
2023-04-09T10:04:30.057Z,45.57
2023-04-09T10:06:57.898Z,47.37
2023-04-09T10:09:28.033Z,47.90
2023-04-09T10:11:57.561Z,47.63
2023-04-09T10:14:26.230Z,43.10
2023-04-09T10:16:53.285Z,43.00
2023-04-09T10:19:20.628Z,42.53
2023-04-09T10:21:56.584Z,45.03
2023-04-09T10:24:23.910Z,42.67
2023-04-09T10:26:54.630Z,43.47
2023-04-09T10:29:28.708Z,45.40
2023-04-09T10:32:06.784Z,42.27
2023-04-09T10:34:39.987Z,40.50
2023-04-09T10:37:14.768Z,41.60
2023-04-09T10:39:45.587Z,43.33
2023-04-09T10:42:15.773Z,40.50
2023-04-09T10:44:42.783Z,42.50
2023-04-09T10:47:11.850Z,41.33
2023-04-09T10:49:40.421Z,32.50
2023-04-09T10:52:11.910Z,34.27
2023-04-09T10:54:46.285Z,35.20
2023-04-09T10:57:18.545Z,35.50
2023-04-09T10:59:53.228Z,35.00
2023-04-09T11:02:52.942Z,35.97
2023-04-09T11:05:36.506Z,34.23
2023-04-09T11:08:09.637Z,32.67
2023-04-09T11:10:38.199Z,30.33
2023-04-09T11:13:05.749Z,34.93
2023-04-09T11:15:36.170Z,32.27
2023-04-09T11:18:03.962Z,32.60
2023-04-09T11:20:31.215Z,32.70
2023-04-09T11:22:59.582Z,29.23
2023-04-09T11:25:31.292Z,30.90
2023-04-09T11:27:58.349Z,29.90
2023-04-09T11:30:25.128Z,33.60
2023-04-09T11:32:52.181Z,23.50
2023-04-09T11:35:22.031Z,25.07
2023-04-09T11:37:50.254Z,23.40
2023-04-09T11:40:22.440Z,26.23
2023-04-09T11:42:51.381Z,24.93
2023-04-09T11:45:19.535Z,25.87
2023-04-09T11:47:47.302Z,28.00
2023-04-09T11:50:15.796Z,23.83
2023-04-09T11:52:43.406Z,24.80
2023-04-09T11:55:10.913Z,23.97
2023-04-09T11:57:47.210Z,23.13
2023-04-09T12:00:16.732Z,26.47
2023-04-09T12:02:49.167Z,26.87
2023-04-09T12:05:27.988Z,27.73
2023-04-09T12:08:02.267Z,25.33
2023-04-09T12:10:30.694Z,27.43
2023-04-09T12:13:09.189Z,32.27
2023-04-09T12:15:41.866Z,27.87
2023-04-09T12:18:10.080Z,22.77
2023-04-09T12:20:45.110Z,24.50
2023-04-09T12:23:13.034Z,24.63
2023-04-09T12:25:42.001Z,25.13
2023-04-09T12:28:17.893Z,23.73
2023-04-09T12:30:45.067Z,20.50
2023-04-09T12:33:11.847Z,21.23
2023-04-09T12:35:38.836Z,19.43
2023-04-09T12:38:06.144Z,20.30
2023-04-09T12:40:33.084Z,20.70
2023-04-09T12:42:59.892Z,20.73
2023-04-09T12:45:27.911Z,20.37
2023-04-09T12:47:54.903Z,27.00
2023-04-09T12:50:21.909Z,21.00
2023-04-09T12:52:48.732Z,22.80
2023-04-09T12:55:16.150Z,20.97
2023-04-09T12:57:45.010Z,21.70
2023-04-09T13:00:12.251Z,22.00
2023-04-09T13:02:39.507Z,23.03
2023-04-09T13:05:06.595Z,21.77
2023-04-09T13:07:33.395Z,22.67
2023-04-09T13:10:00.303Z,22.47
2023-04-09T13:12:27.358Z,21.13
2023-04-09T13:14:55.532Z,20.57
2023-04-09T13:17:22.852Z,22.30
2023-04-09T13:19:51.683Z,22.33
2023-04-09T13:22:19.122Z,22.40
2023-04-09T13:24:45.994Z,20.80
2023-04-09T13:27:12.847Z,21.70
2023-04-09T13:29:40.007Z,22.00
2023-04-09T13:32:11.053Z,22.47
2023-04-09T13:34:39.243Z,23.10
2023-04-09T13:37:06.315Z,19.70
2023-04-09T13:39:33.534Z,20.70
2023-04-09T13:42:07.157Z,22.43
2023-04-09T13:44:37.029Z,24.03
2023-04-09T13:47:03.765Z,21.60
2023-04-09T13:49:30.944Z,24.37
2023-04-09T13:51:58.258Z,23.90
2023-04-09T13:54:25.054Z,25.53
2023-04-09T13:56:51.880Z,26.80
2023-04-09T13:59:18.713Z,25.07
2023-04-09T14:01:45.728Z,23.97
2023-04-09T14:04:12.784Z,24.77
2023-04-09T14:06:39.637Z,24.40
2023-04-09T14:09:06.367Z,25.17
2023-04-09T14:11:33.086Z,26.60
2023-04-09T14:13:59.822Z,23.27
2023-04-09T14:16:28.078Z,24.40
2023-04-09T14:18:54.985Z,21.60
2023-04-09T14:21:22.102Z,22.33
2023-04-09T14:23:49.239Z,24.53
2023-04-09T14:26:24.222Z,20.60
2023-04-09T14:28:51.685Z,22.80
2023-04-09T14:31:21.730Z,22.37
2023-04-09T14:33:49.214Z,19.20
2023-04-09T14:36:16.665Z,20.03
2023-04-09T14:38:43.812Z,21.03
2023-04-09T14:41:10.768Z,21.20
2023-04-09T14:43:37.608Z,20.23
2023-04-09T14:46:06.383Z,18.50
2023-04-09T14:48:33.155Z,19.43
2023-04-09T14:50:59.856Z,20.77
2023-04-09T14:53:26.725Z,20.40
2023-04-09T14:55:53.466Z,18.30
2023-04-09T14:58:20.778Z,19.80
2023-04-09T15:00:47.611Z,19.17
2023-04-09T15:03:14.590Z,19.60
2023-04-09T15:05:41.606Z,17.00
2023-04-09T15:08:08.278Z,17.20
2023-04-09T15:10:36.600Z,16.43
2023-04-09T15:13:03.366Z,18.03
2023-04-09T15:15:30.118Z,21.03
2023-04-09T15:17:57.122Z,19.37
2023-04-09T15:20:23.951Z,20.27
2023-04-09T15:22:51.237Z,18.77
2023-04-09T15:25:18.055Z,17.63
2023-04-09T15:27:46.469Z,18.30
2023-04-09T15:30:13.279Z,18.67
2023-04-09T15:32:40.111Z,21.87
2023-04-09T15:35:07.257Z,18.77
2023-04-09T15:37:34.108Z,19.20
2023-04-09T15:40:01.552Z,28.10
2023-04-09T15:42:28.254Z,49.43
2023-04-09T15:44:55.353Z,23.07
2023-04-09T15:47:22.087Z,20.17
2023-04-09T15:49:48.828Z,19.27
2023-04-09T15:52:15.724Z,21.50
2023-04-09T15:54:42.485Z,22.30
2023-04-09T15:57:09.175Z,21.77
2023-04-09T15:59:35.956Z,23.70
2023-04-09T16:02:04.445Z,22.40
2023-04-09T16:04:31.313Z,21.03
2023-04-09T16:06:58.278Z,21.63
2023-04-09T16:09:25.028Z,23.73
2023-04-09T16:11:51.837Z,21.60
2023-04-09T16:14:18.678Z,21.23
2023-04-09T16:16:49.746Z,27.17
2023-04-09T16:19:17.628Z,20.60
2023-04-09T16:21:45.352Z,22.00
2023-04-09T16:24:13.000Z,25.63
2023-04-09T16:26:44.306Z,20.87
2023-04-09T16:29:11.723Z,20.50
2023-04-09T16:31:41.809Z,20.27
2023-04-09T16:34:08.536Z,20.97
2023-04-09T16:36:38.002Z,23.07
2023-04-09T16:39:05.173Z,22.70
2023-04-09T16:41:32.652Z,23.03
2023-04-09T16:44:00.663Z,23.63
2023-04-09T16:46:27.504Z,21.87
2023-04-09T16:48:54.603Z,21.83
2023-04-09T16:51:21.518Z,21.80
2023-04-09T16:53:48.240Z,22.50
2023-04-09T16:56:16.009Z,24.27
2023-04-09T16:58:43.033Z,23.50
2023-04-09T17:01:09.755Z,20.13
2023-04-09T17:03:36.528Z,23.43
2023-04-09T17:06:04.711Z,21.60
2023-04-09T17:08:31.775Z,22.43
2023-04-09T17:11:04.223Z,22.23
2023-04-09T17:13:34.233Z,24.87
2023-04-09T17:16:02.545Z,21.70
2023-04-09T17:18:29.871Z,23.13
2023-04-09T17:20:56.689Z,24.20
2023-04-09T17:23:23.566Z,22.00
2023-04-09T17:25:50.301Z,22.20
2023-04-09T17:28:18.805Z,21.73
2023-04-09T17:30:45.823Z,25.00
2023-04-09T17:33:12.764Z,37.63
2023-04-09T17:35:39.634Z,30.47
2023-04-09T17:38:06.749Z,22.90
2023-04-09T17:40:33.702Z,25.43
2023-04-09T17:43:00.809Z,23.90
2023-04-09T17:45:27.546Z,23.20
2023-04-09T17:47:54.367Z,24.50
2023-04-09T17:50:21.347Z,24.90
2023-04-09T17:52:48.067Z,25.00
2023-04-09T17:55:15.410Z,25.00
2023-04-09T17:57:42.780Z,29.00
2023-04-09T18:00:11.117Z,24.47
2023-04-09T18:02:38.176Z,29.00
2023-04-09T18:05:05.574Z,27.20
2023-04-09T18:07:35.399Z,25.97
2023-04-09T18:10:03.505Z,24.90
2023-04-09T18:12:30.395Z,27.07
2023-04-09T18:14:57.199Z,24.90
2023-04-09T18:17:26.139Z,27.30
2023-04-09T18:19:58.373Z,27.10
2023-04-09T18:22:26.884Z,27.47
2023-04-09T18:24:54.234Z,29.50
2023-04-09T18:27:21.600Z,29.33
2023-04-09T18:29:51.457Z,33.57
2023-04-09T18:32:19.695Z,33.30
2023-04-09T18:34:47.661Z,37.53
2023-04-09T18:37:15.329Z,48.13
2023-04-09T18:39:42.124Z,43.47
2023-04-09T18:42:08.893Z,55.57
2023-04-09T18:44:37.532Z,54.70
2023-04-09T18:47:05.751Z,55.10
2023-04-09T18:49:33.365Z,54.20
2023-04-09T18:52:00.656Z,48.13
2023-04-09T18:54:27.691Z,57.70
2023-04-09T18:56:54.447Z,62.73
2023-04-09T18:59:21.752Z,61.47
2023-04-09T19:01:48.603Z,84.00
2023-04-09T19:04:15.668Z,76.27
2023-04-09T19:06:44.574Z,90.03
2023-04-09T19:09:11.294Z,79.07
2023-04-09T19:11:38.066Z,89.90
2023-04-09T19:14:04.764Z,90.83
2023-04-09T19:16:31.595Z,98.77
2023-04-09T19:18:58.458Z,103.40
2023-04-09T19:21:25.226Z,95.53
2023-04-09T19:23:51.946Z,93.07
2023-04-09T19:26:18.685Z,120.67
2023-04-09T19:28:45.788Z,112.90
2023-04-09T19:31:16.164Z,113.20
2023-04-09T19:33:42.947Z,113.40
2023-04-09T19:36:09.725Z,98.93
2023-04-09T19:38:36.522Z,103.10
2023-04-09T19:41:03.380Z,90.67
2023-04-09T19:43:30.254Z,111.57
2023-04-09T19:45:57.023Z,112.87
2023-04-09T19:48:24.363Z,117.13
2023-04-09T19:50:52.507Z,122.73
2023-04-09T19:53:19.270Z,126.70
2023-04-09T19:55:45.971Z,128.70
2023-04-09T19:58:12.685Z,136.63
2023-04-09T20:00:39.485Z,134.60
2023-04-09T20:03:07.166Z,142.77
2023-04-09T20:05:34.500Z,126.33
2023-04-09T20:08:01.229Z,120.63
2023-04-09T20:10:28.056Z,101.50
2023-04-09T20:12:54.841Z,108.50
2023-04-09T20:15:21.612Z,89.47
2023-04-09T20:17:49.412Z,92.17
2023-04-09T20:20:20.347Z,87.03
2023-04-09T20:22:55.689Z,88.27
2023-04-09T20:25:23.693Z,86.73
2023-04-09T20:27:53.010Z,72.10
2023-04-09T20:30:19.901Z,73.13
2023-04-09T20:32:48.830Z,79.43
2023-04-09T20:35:15.900Z,73.60
2023-04-09T20:37:42.784Z,62.10
2023-04-09T20:40:10.934Z,63.97
2023-04-09T20:42:40.832Z,60.30
2023-04-09T20:45:08.743Z,55.63
2023-04-09T20:50:03.299Z,59.00
2023-04-09T20:52:30.469Z,54.33
2023-04-09T20:54:57.706Z,58.90
2023-04-09T20:57:24.464Z,60.10
2023-04-09T20:59:52.810Z,56.33
2023-04-09T21:02:19.864Z,56.90
2023-04-09T21:04:46.769Z,65.47
2023-04-09T21:07:13.636Z,61.33
2023-04-09T21:09:40.381Z,57.30
2023-04-09T21:12:07.284Z,58.10
2023-04-09T21:14:34.100Z,62.80
2023-04-09T21:17:01.105Z,66.17
2023-04-09T21:19:27.956Z,77.50
2023-04-09T21:21:54.782Z,77.37
2023-04-09T21:24:21.595Z,67.13
2023-04-09T21:26:51.181Z,80.77
2023-04-09T21:29:20.660Z,69.30
2023-04-09T21:31:48.549Z,72.83
2023-04-09T21:34:15.894Z,77.87
2023-04-09T21:36:45.001Z,69.80
2023-04-09T21:39:12.281Z,76.07
2023-04-09T21:41:39.476Z,78.37
2023-04-09T21:44:08.527Z,85.03
2023-04-09T21:46:40.521Z,75.40
2023-04-09T21:49:08.109Z,79.87
2023-04-09T21:51:35.303Z,85.17
2023-04-09T21:54:09.752Z,93.00
2023-04-09T21:56:37.004Z,88.70
2023-04-09T21:59:04.401Z,58.80
2023-04-09T22:01:32.077Z,77.30
2023-04-09T22:04:00.191Z,76.87
2023-04-09T22:06:28.699Z,82.23
2023-04-09T22:08:57.554Z,81.30
2023-04-09T22:11:29.379Z,70.33
2023-04-09T22:13:57.207Z,71.90
2023-04-09T22:16:25.060Z,78.10
2023-04-09T22:18:52.683Z,72.30
2023-04-09T22:21:19.706Z,66.40
2023-04-09T22:23:46.507Z,63.37
2023-04-09T22:26:13.213Z,65.63
2023-04-09T22:28:40.020Z,68.87
2023-04-09T22:31:07.135Z,63.20
2023-04-09T22:33:34.263Z,59.93
2023-04-09T22:36:01.218Z,53.73
2023-04-09T22:38:28.424Z,56.93
2023-04-09T22:40:55.736Z,63.50
2023-04-09T22:43:22.786Z,65.50
2023-04-09T22:45:51.474Z,61.23
2023-04-09T22:48:19.062Z,64.73
2023-04-09T22:50:46.003Z,69.63
2023-04-09T22:53:13.078Z,74.93
2023-04-09T22:55:40.599Z,63.03
2023-04-09T22:58:07.333Z,73.30
2023-04-09T23:00:34.085Z,70.90
2023-04-09T23:03:01.055Z,71.60
2023-04-09T23:05:27.933Z,70.13
2023-04-09T23:07:54.621Z,79.13
2023-04-09T23:10:21.608Z,77.50
2023-04-09T23:12:48.290Z,83.00
2023-04-09T23:15:15.828Z,68.77
2023-04-09T23:17:42.836Z,78.30
2023-04-09T23:20:11.306Z,77.60
2023-04-09T23:22:38.095Z,72.33
2023-04-09T23:25:05.134Z,69.40
2023-04-09T23:27:31.876Z,78.57
2023-04-09T23:29:58.732Z,74.63
2023-04-09T23:32:25.527Z,74.27
2023-04-09T23:34:52.268Z,77.90
2023-04-09T23:37:19.107Z,71.83
2023-04-09T23:39:48.806Z,80.17
2023-04-09T23:42:15.649Z,80.73
2023-04-09T23:44:43.857Z,79.70
2023-04-09T23:47:12.018Z,77.70
2023-04-09T23:49:39.125Z,77.17
2023-04-09T23:52:06.024Z,69.93
2023-04-09T23:54:32.743Z,66.00
2023-04-09T23:56:59.685Z,69.93
2023-04-09T23:59:26.485Z,71.93
